createdAt,value
2018-05-23T00:00:26.797Z,988.73
2018-05-23T00:01:26.797Z,988.73
2018-05-23T00:02:26.799Z,988.75
2018-05-23T00:03:26.806Z,988.74
2018-05-23T00:04:26.799Z,988.71
2018-05-23T00:05:26.800Z,988.73
2018-05-23T00:06:26.809Z,988.72
2018-05-23T00:07:26.802Z,988.73
2018-05-23T00:08:26.803Z,988.77
2018-05-23T00:09:26.803Z,988.78
2018-05-23T00:10:26.802Z,988.71
2018-05-23T00:11:26.803Z,988.71
2018-05-23T00:12:26.808Z,988.76
2018-05-23T00:13:28.668Z,988.76
2018-05-23T00:14:26.804Z,988.84
2018-05-23T00:15:26.805Z,988.83
2018-05-23T00:16:26.807Z,988.86
2018-05-23T00:17:26.807Z,988.82
2018-05-23T00:18:26.808Z,988.87
2018-05-23T00:19:26.812Z,988.8
2018-05-23T00:20:26.806Z,988.85
2018-05-23T00:21:26.807Z,988.85
2018-05-23T00:22:26.809Z,988.85
2018-05-23T00:23:26.810Z,988.87
2018-05-23T00:24:26.807Z,988.87
2018-05-23T00:25:26.812Z,988.84
2018-05-23T00:26:26.812Z,988.85
2018-05-23T00:27:26.810Z,988.87
2018-05-23T00:28:26.811Z,988.86
2018-05-23T00:29:26.813Z,988.84
2018-05-23T00:30:26.814Z,988.86
2018-05-23T00:31:26.813Z,988.89
2018-05-23T00:32:26.813Z,988.89
2018-05-23T00:33:26.816Z,988.89
2018-05-23T00:34:26.816Z,988.89
2018-05-23T00:35:26.816Z,988.87
2018-05-23T00:36:26.818Z,988.89
2018-05-23T00:37:26.817Z,988.87
2018-05-23T00:38:26.818Z,988.88
2018-05-23T00:39:26.823Z,988.85
2018-05-23T00:40:26.820Z,988.84
2018-05-23T00:41:26.818Z,988.83
2018-05-23T00:42:26.821Z,988.89
2018-05-23T00:43:26.830Z,988.86
2018-05-23T00:44:26.821Z,988.84
2018-05-23T00:45:26.828Z,988.86
2018-05-23T00:46:26.821Z,988.89
2018-05-23T00:47:26.828Z,988.85
2018-05-23T00:48:26.823Z,988.88
2018-05-23T00:49:26.824Z,988.83
2018-05-23T00:50:26.824Z,988.84
2018-05-23T00:51:26.826Z,988.86
2018-05-23T00:52:26.825Z,988.83
2018-05-23T00:53:26.826Z,988.85
2018-05-23T00:54:26.827Z,988.87
2018-05-23T00:55:26.830Z,988.9
2018-05-23T00:56:26.830Z,988.9
2018-05-23T00:57:26.828Z,988.94
2018-05-23T00:58:26.829Z,988.94
2018-05-23T00:59:26.828Z,988.93
2018-05-23T01:00:26.845Z,988.93
2018-05-23T01:01:26.830Z,988.95
2018-05-23T01:02:26.831Z,988.94
2018-05-23T01:03:26.835Z,988.96
2018-05-23T01:04:26.832Z,988.91
2018-05-23T01:05:26.833Z,988.93
2018-05-23T01:06:26.834Z,988.91
2018-05-23T01:07:26.838Z,988.92
2018-05-23T01:08:26.839Z,988.93
2018-05-23T01:09:26.839Z,988.91
2018-05-23T01:10:26.839Z,988.92
2018-05-23T01:11:26.840Z,988.96
2018-05-23T01:12:26.839Z,988.9
2018-05-23T01:13:26.853Z,988.95
2018-05-23T01:14:26.841Z,988.93
2018-05-23T01:15:26.840Z,988.95
2018-05-23T01:16:26.845Z,988.99
2018-05-23T01:17:26.843Z,988.98
2018-05-23T01:18:26.843Z,989
2018-05-23T01:19:26.841Z,988.98
2018-05-23T01:20:26.843Z,988.98
2018-05-23T01:21:26.870Z,989
2018-05-23T01:22:26.843Z,989.01
2018-05-23T01:23:26.856Z,989
2018-05-23T01:24:26.844Z,989.02
2018-05-23T01:25:26.846Z,988.97
2018-05-23T01:26:26.847Z,988.96
2018-05-23T01:27:26.849Z,988.99
2018-05-23T01:28:26.847Z,988.98
2018-05-23T01:29:26.848Z,988.98
2018-05-23T01:30:26.849Z,988.97
2018-05-23T01:31:26.849Z,988.97
2018-05-23T01:32:26.873Z,988.93
2018-05-23T01:33:26.848Z,988.93
2018-05-23T01:34:26.849Z,988.95
2018-05-23T01:35:26.869Z,988.95
2018-05-23T01:36:26.851Z,988.95
2018-05-23T01:37:26.851Z,988.94
2018-05-23T01:38:26.851Z,988.94
2018-05-23T01:39:26.850Z,988.92
2018-05-23T01:40:26.855Z,988.93
2018-05-23T01:41:26.851Z,988.93
2018-05-23T01:42:26.860Z,988.9
2018-05-23T01:43:26.855Z,988.94
2018-05-23T01:44:28.713Z,988.9
2018-05-23T01:45:26.860Z,988.92
2018-05-23T01:46:26.854Z,988.95
2018-05-23T01:47:26.855Z,988.96
2018-05-23T01:48:26.854Z,988.95
2018-05-23T01:49:26.857Z,988.89
2018-05-23T01:50:26.864Z,988.9
2018-05-23T01:51:26.858Z,988.95
2018-05-23T01:52:26.856Z,988.94
2018-05-23T01:53:26.859Z,988.96
2018-05-23T01:54:26.862Z,988.93
2018-05-23T01:55:26.859Z,988.96
2018-05-23T01:56:26.857Z,988.97
2018-05-23T01:57:26.858Z,988.99
2018-05-23T01:58:26.861Z,988.98
2018-05-23T01:59:26.871Z,988.96
2018-05-23T02:00:26.861Z,989
2018-05-23T02:01:26.861Z,988.97
2018-05-23T02:02:26.863Z,989.01
2018-05-23T02:03:26.865Z,989.01
2018-05-23T02:04:26.860Z,988.99
2018-05-23T02:05:26.866Z,989
2018-05-23T02:06:26.865Z,989.09
2018-05-23T02:07:26.860Z,989
2018-05-23T02:08:26.862Z,989.09
2018-05-23T02:09:26.861Z,989.1
2018-05-23T02:10:26.860Z,989.08
2018-05-23T02:11:26.862Z,989.1
2018-05-23T02:12:26.864Z,989.07
2018-05-23T02:13:26.864Z,989.09
2018-05-23T02:14:26.860Z,989.08
2018-05-23T02:15:26.865Z,989.11
2018-05-23T02:16:26.861Z,989.13
2018-05-23T02:17:26.859Z,989.12
2018-05-23T02:18:26.863Z,989.15
2018-05-23T02:19:26.860Z,989.15
2018-05-23T02:20:27.195Z,989.13
2018-05-23T02:21:26.879Z,989.16
2018-05-23T02:22:26.862Z,989.1
2018-05-23T02:23:26.864Z,989.1
2018-05-23T02:24:26.862Z,989.12
2018-05-23T02:25:26.861Z,989.13
2018-05-23T02:26:26.861Z,989.13
2018-05-23T02:27:26.863Z,989.17
2018-05-23T02:28:26.859Z,989.18
2018-05-23T02:29:26.864Z,989.18
2018-05-23T02:30:26.861Z,989.17
2018-05-23T02:31:26.861Z,989.19
2018-05-23T02:32:26.858Z,989.19
2018-05-23T02:33:26.866Z,989.18
2018-05-23T02:34:26.861Z,989.17
2018-05-23T02:35:26.861Z,989.15
2018-05-23T02:36:26.861Z,989.12
2018-05-23T02:37:26.868Z,989.14
2018-05-23T02:38:26.862Z,989.14
2018-05-23T02:39:26.862Z,989.12
2018-05-23T02:40:26.864Z,989.12
2018-05-23T02:41:26.861Z,989.11
2018-05-23T02:42:26.861Z,989.12
2018-05-23T02:43:26.861Z,989.11
2018-05-23T02:44:26.865Z,989.1
2018-05-23T02:45:26.860Z,989.08
2018-05-23T02:46:26.859Z,989.11
2018-05-23T02:47:26.864Z,989.14
2018-05-23T02:48:26.871Z,989.13
2018-05-23T02:49:26.858Z,989.18
2018-05-23T02:50:26.857Z,989.15
2018-05-23T02:51:26.860Z,989.19
2018-05-23T02:52:26.858Z,989.2
2018-05-23T02:53:26.886Z,989.16
2018-05-23T02:54:26.866Z,989.12
2018-05-23T02:55:26.859Z,989.15
2018-05-23T02:56:26.857Z,989.18
2018-05-23T02:57:26.862Z,989.15
2018-05-23T02:58:26.863Z,989.16
2018-05-23T02:59:26.867Z,989.14
2018-05-23T03:00:26.857Z,989.14
2018-05-23T03:01:26.859Z,989.11
2018-05-23T03:02:26.855Z,989.13
2018-05-23T03:03:26.855Z,989.11
2018-05-23T03:04:26.879Z,989.11
2018-05-23T03:05:26.854Z,989.1
2018-05-23T03:06:26.856Z,989.07
2018-05-23T03:07:26.853Z,989.06
2018-05-23T03:08:26.857Z,989.1
2018-05-23T03:09:26.854Z,989.04
2018-05-23T03:10:26.853Z,989.03
2018-05-23T03:11:26.860Z,989.01
2018-05-23T03:12:26.853Z,988.99
2018-05-23T03:13:26.855Z,988.95
2018-05-23T03:14:26.853Z,988.96
2018-05-23T03:15:26.856Z,988.93
2018-05-23T03:16:26.868Z,988.94
2018-05-23T03:17:26.853Z,988.94
2018-05-23T03:18:26.853Z,988.91
2018-05-23T03:19:26.853Z,988.87
2018-05-23T03:20:26.852Z,988.89
2018-05-23T03:21:26.853Z,988.87
2018-05-23T03:22:26.853Z,988.87
2018-05-23T03:23:26.853Z,988.86
2018-05-23T03:24:26.858Z,988.85
2018-05-23T03:25:26.853Z,988.84
2018-05-23T03:26:26.855Z,988.87
2018-05-23T03:27:26.858Z,988.87
2018-05-23T03:28:26.854Z,988.84
2018-05-23T03:29:26.855Z,988.86
2018-05-23T03:30:26.863Z,988.82
2018-05-23T03:31:26.854Z,988.85
2018-05-23T03:32:26.858Z,988.84
2018-05-23T03:33:26.853Z,988.84
2018-05-23T03:34:26.857Z,988.84
2018-05-23T03:35:26.852Z,988.89
2018-05-23T03:36:26.855Z,988.89
2018-05-23T03:37:26.854Z,988.92
2018-05-23T03:38:26.852Z,988.97
2018-05-23T03:39:26.851Z,988.96
2018-05-23T03:40:26.853Z,989
2018-05-23T03:41:26.873Z,989.04
2018-05-23T03:42:26.854Z,989.04
2018-05-23T03:43:26.855Z,989.08
2018-05-23T03:44:26.853Z,989.1
2018-05-23T03:45:26.856Z,989.1
2018-05-23T03:46:26.855Z,989.09
2018-05-23T03:47:26.861Z,989.09
2018-05-23T03:48:26.855Z,989.09
2018-05-23T03:49:26.863Z,989.11
2018-05-23T03:50:26.864Z,989.11
2018-05-23T03:51:26.859Z,989.13
2018-05-23T03:52:26.863Z,989.16
2018-05-23T03:53:26.854Z,989.16
2018-05-23T03:54:26.854Z,989.19
2018-05-23T03:55:26.870Z,989.17
2018-05-23T03:56:26.855Z,989.21
2018-05-23T03:57:26.858Z,989.2
2018-05-23T03:58:26.857Z,989.18
2018-05-23T03:59:26.863Z,989.15
2018-05-23T04:00:26.891Z,989.11
2018-05-23T04:01:26.853Z,989.16
2018-05-23T04:02:26.866Z,989.17
2018-05-23T04:03:26.858Z,989.16
2018-05-23T04:04:26.861Z,989.23
2018-05-23T04:05:26.879Z,989.24
2018-05-23T04:06:26.854Z,989.26
2018-05-23T04:07:26.864Z,989.33
2018-05-23T04:08:26.865Z,989.31
2018-05-23T04:09:26.853Z,989.36
2018-05-23T04:10:26.863Z,989.34
2018-05-23T04:11:26.852Z,989.38
2018-05-23T04:12:26.851Z,989.34
2018-05-23T04:13:26.851Z,989.32
2018-05-23T04:14:26.849Z,989.36
2018-05-23T04:15:26.892Z,989.39
2018-05-23T04:16:26.849Z,989.42
2018-05-23T04:17:26.848Z,989.43
2018-05-23T04:18:26.853Z,989.46
2018-05-23T04:19:26.848Z,989.49
2018-05-23T04:20:26.849Z,989.49
2018-05-23T04:21:26.848Z,989.48
2018-05-23T04:22:26.848Z,989.5
2018-05-23T04:23:26.847Z,989.53
2018-05-23T04:24:26.927Z,989.61
2018-05-23T04:25:26.848Z,989.56
2018-05-23T04:26:26.851Z,989.62
2018-05-23T04:27:26.852Z,989.6
2018-05-23T04:28:26.855Z,989.63
2018-05-23T04:29:26.859Z,989.65
2018-05-23T04:30:26.848Z,989.65
2018-05-23T04:31:26.848Z,989.69
2018-05-23T04:32:26.848Z,989.71
2018-05-23T04:33:26.851Z,989.75
2018-05-23T04:34:26.842Z,989.72
2018-05-23T04:35:26.846Z,989.77
2018-05-23T04:36:26.847Z,989.76
2018-05-23T04:37:26.843Z,989.75
2018-05-23T04:38:26.843Z,989.77
2018-05-23T04:39:26.929Z,989.74
2018-05-23T04:40:26.847Z,989.79
2018-05-23T04:41:27.049Z,989.76
2018-05-23T04:42:26.862Z,989.81
2018-05-23T04:43:26.836Z,989.8
2018-05-23T04:44:26.849Z,989.83
2018-05-23T04:45:26.837Z,989.9
2018-05-23T04:46:26.839Z,989.86
2018-05-23T04:47:26.837Z,989.91
2018-05-23T04:48:26.834Z,989.9
2018-05-23T04:49:26.835Z,989.9
2018-05-23T04:50:26.832Z,989.91
2018-05-23T04:51:26.833Z,989.94
2018-05-23T04:52:26.833Z,990
2018-05-23T04:53:26.831Z,989.98
2018-05-23T04:54:26.830Z,990
2018-05-23T04:55:26.831Z,989.99
2018-05-23T04:56:26.831Z,990.02
2018-05-23T04:57:26.832Z,989.97
2018-05-23T04:58:26.829Z,990.04
2018-05-23T04:59:26.829Z,990.06
2018-05-23T05:00:26.840Z,990.07
2018-05-23T05:01:26.895Z,990.1
2018-05-23T05:02:26.904Z,990.09
2018-05-23T05:03:26.827Z,990.12
2018-05-23T05:04:26.836Z,990.14
2018-05-23T05:05:26.830Z,990.13
2018-05-23T05:06:26.848Z,990.09
2018-05-23T05:07:26.830Z,990.14
2018-05-23T05:08:26.830Z,990.19
2018-05-23T05:09:26.830Z,990.17
2018-05-23T05:10:26.826Z,990.2
2018-05-23T05:11:26.827Z,990.23
2018-05-23T05:12:26.827Z,990.22
2018-05-23T05:13:26.828Z,990.24
2018-05-23T05:14:26.828Z,990.24
2018-05-23T05:15:30.832Z,990.32
2018-05-23T05:16:26.825Z,990.27
2018-05-23T05:17:26.826Z,990.29
2018-05-23T05:18:26.825Z,990.3
2018-05-23T05:19:26.833Z,990.33
2018-05-23T05:20:26.829Z,990.3
2018-05-23T05:21:26.827Z,990.35
2018-05-23T05:22:26.828Z,990.34
2018-05-23T05:23:26.827Z,990.39
2018-05-23T05:24:26.829Z,990.39
2018-05-23T05:25:26.827Z,990.38
2018-05-23T05:26:26.827Z,990.36
2018-05-23T05:27:26.827Z,990.39
2018-05-23T05:28:26.826Z,990.4
2018-05-23T05:29:26.830Z,990.38
2018-05-23T05:30:26.831Z,990.41
2018-05-23T05:31:26.830Z,990.44
2018-05-23T05:32:26.830Z,990.4
2018-05-23T05:33:26.839Z,990.46
2018-05-23T05:34:26.831Z,990.45
2018-05-23T05:35:26.830Z,990.46
2018-05-23T05:36:26.831Z,990.44
2018-05-23T05:37:26.831Z,990.46
2018-05-23T05:38:26.831Z,990.48
2018-05-23T05:39:26.836Z,990.5
2018-05-23T05:40:26.843Z,990.55
2018-05-23T05:41:26.842Z,990.54
2018-05-23T05:42:26.848Z,990.59
2018-05-23T05:43:26.836Z,990.6
2018-05-23T05:44:26.844Z,990.62
2018-05-23T05:45:26.836Z,990.63
2018-05-23T05:46:26.839Z,990.64
2018-05-23T05:47:26.838Z,990.65
2018-05-23T05:48:26.842Z,990.65
2018-05-23T05:49:26.838Z,990.69
2018-05-23T05:50:26.840Z,990.66
2018-05-23T05:51:26.838Z,990.7
2018-05-23T05:52:26.839Z,990.68
2018-05-23T05:53:26.846Z,990.73
2018-05-23T05:54:26.843Z,990.77
2018-05-23T05:55:26.843Z,990.78
2018-05-23T05:56:26.845Z,990.78
2018-05-23T05:57:26.843Z,990.8
2018-05-23T05:58:26.843Z,990.84
2018-05-23T05:59:26.845Z,990.84
2018-05-23T06:00:26.846Z,990.89
2018-05-23T06:01:26.847Z,990.92
2018-05-23T06:02:26.850Z,990.98
2018-05-23T06:03:26.846Z,990.98
2018-05-23T06:04:26.847Z,990.93
2018-05-23T06:05:26.851Z,990.98
2018-05-23T06:06:26.850Z,990.97
2018-05-23T06:07:26.851Z,991.01
2018-05-23T06:08:26.851Z,991.01
2018-05-23T06:09:26.909Z,991.02
2018-05-23T06:10:26.854Z,991.05
2018-05-23T06:11:26.856Z,991.07
2018-05-23T06:12:26.855Z,991.12
2018-05-23T06:13:26.855Z,991.15
2018-05-23T06:23:05.846Z,991.27
2018-05-23T06:24:05.839Z,991.28
2018-05-23T06:25:05.825Z,991.27
2018-05-23T06:26:05.910Z,991.25
2018-05-23T06:27:05.826Z,991.28
2018-05-23T06:28:05.826Z,991.24
2018-05-23T06:29:05.827Z,991.28
2018-05-23T06:30:05.830Z,991.27
2018-05-23T06:31:05.825Z,991.3
2018-05-23T06:32:05.829Z,991.3
2018-05-23T06:33:05.826Z,991.33
2018-05-23T06:34:05.825Z,991.31
2018-05-23T06:35:05.827Z,991.31
2018-05-23T06:36:05.893Z,991.31
2018-05-23T06:37:05.829Z,991.3
2018-05-23T06:38:05.879Z,991.3
2018-05-23T06:39:05.830Z,991.29
2018-05-23T06:40:05.831Z,991.27
2018-05-23T06:41:05.833Z,991.28
2018-05-23T06:42:05.835Z,991.25
2018-05-23T06:43:05.836Z,991.24
2018-05-23T06:44:05.839Z,991.28
2018-05-23T06:45:05.839Z,991.28
2018-05-23T06:46:05.866Z,991.24
2018-05-23T06:47:05.844Z,991.26
2018-05-23T06:48:05.844Z,991.27
2018-05-23T06:49:05.848Z,991.23
2018-05-23T06:50:05.958Z,991.27
2018-05-23T06:51:05.851Z,991.26
2018-05-23T06:52:05.857Z,991.27
2018-05-23T06:53:05.853Z,991.32
2018-05-23T06:54:05.855Z,991.32
2018-05-23T06:55:06.196Z,991.32
2018-05-23T06:56:05.862Z,991.33
2018-05-23T06:57:05.862Z,991.32
2018-05-23T06:58:05.874Z,991.35
2018-05-23T06:59:05.864Z,991.37
2018-05-23T07:00:05.865Z,991.39
2018-05-23T07:01:05.865Z,991.39
2018-05-23T07:02:05.866Z,991.38
2018-05-23T07:03:05.881Z,991.43
2018-05-23T07:04:05.870Z,991.46
2018-05-23T07:05:05.871Z,991.49
2018-05-23T07:06:05.874Z,991.49
2018-05-23T07:07:05.879Z,991.45
2018-05-23T07:08:05.877Z,991.49
2018-05-23T07:09:05.879Z,991.53
2018-05-23T07:10:05.882Z,991.52
2018-05-23T07:11:06.101Z,991.55
2018-05-23T07:12:05.888Z,991.54
2018-05-23T07:13:05.893Z,991.59
2018-05-23T07:14:05.893Z,991.59
2018-05-23T07:15:05.892Z,991.66
2018-05-23T07:16:05.893Z,991.67
2018-05-23T07:17:05.898Z,991.67
2018-05-23T07:18:05.943Z,991.69
2018-05-23T07:19:05.898Z,991.7
2018-05-23T07:20:05.903Z,991.69
2018-05-23T07:21:05.903Z,991.67
2018-05-23T07:22:05.903Z,991.65
2018-05-23T07:23:05.921Z,991.65
2018-05-23T07:24:05.947Z,991.64
2018-05-23T07:25:05.907Z,991.64
2018-05-23T07:26:05.911Z,991.64
2018-05-23T07:27:05.911Z,991.68
2018-05-23T07:28:05.927Z,991.68
2018-05-23T07:29:05.922Z,991.69
2018-05-23T07:30:05.921Z,991.71
2018-05-23T07:31:05.924Z,991.69
2018-05-23T07:32:05.925Z,991.74
2018-05-23T07:33:05.931Z,991.73
2018-05-23T07:34:05.930Z,991.73
2018-05-23T07:35:05.936Z,991.75
2018-05-23T07:36:05.934Z,991.76
2018-05-23T07:37:05.935Z,991.76
2018-05-23T07:38:05.991Z,991.71
2018-05-23T07:39:05.943Z,991.75
2018-05-23T07:40:05.962Z,991.76
2018-05-23T07:41:05.995Z,991.76
2018-05-23T07:42:05.952Z,991.74
2018-05-23T07:43:05.953Z,991.73
2018-05-23T07:44:05.956Z,991.79
2018-05-23T07:45:05.959Z,991.78
2018-05-23T07:46:05.965Z,991.82
2018-05-23T07:47:05.969Z,991.83
2018-05-23T07:48:05.970Z,991.83
2018-05-23T07:49:05.972Z,991.86
2018-05-23T07:50:05.976Z,991.87
2018-05-23T07:51:05.977Z,991.85
2018-05-23T07:52:05.983Z,991.88
2018-05-23T07:53:06.788Z,991.88
2018-05-23T07:54:05.988Z,991.91
2018-05-23T07:55:05.991Z,991.9
2018-05-23T07:56:06.026Z,991.9
2018-05-23T07:57:06.000Z,991.91
2018-05-23T07:58:06.002Z,991.91
2018-05-23T07:59:06.010Z,991.95
2018-05-23T08:00:06.013Z,991.95
2018-05-23T08:01:06.026Z,991.97
2018-05-23T08:02:06.018Z,991.98
2018-05-23T08:03:06.023Z,991.95
2018-05-23T08:04:06.044Z,991.97
2018-05-23T08:05:06.032Z,991.96
2018-05-23T08:06:06.036Z,991.99
2018-05-23T08:07:06.042Z,992.01
2018-05-23T08:08:06.042Z,992.03
2018-05-23T08:09:06.097Z,992.05
2018-05-23T08:10:06.062Z,992.05
2018-05-23T08:11:06.059Z,992.05
2018-05-23T08:12:06.065Z,992.03
2018-05-23T08:13:06.066Z,992.07
2018-05-23T08:14:06.069Z,992.05
2018-05-23T08:15:06.071Z,992.06
2018-05-23T08:16:06.075Z,992.05
2018-05-23T08:17:06.080Z,992.03
2018-05-23T08:18:06.085Z,991.98
2018-05-23T08:19:06.088Z,991.99
2018-05-23T08:20:06.094Z,992
2018-05-23T08:21:06.106Z,992.03
2018-05-23T08:22:06.099Z,991.98
2018-05-23T08:23:06.104Z,992
2018-05-23T08:24:06.118Z,991.99
2018-05-23T08:25:06.128Z,992
2018-05-23T08:26:06.187Z,991.99
2018-05-23T08:27:06.131Z,992
2018-05-23T08:28:06.134Z,992
2018-05-23T08:29:06.129Z,992.03
2018-05-23T08:30:06.133Z,992.03
2018-05-23T08:31:06.141Z,992.06
2018-05-23T08:32:06.142Z,992.1
2018-05-23T08:33:06.145Z,992.1
2018-05-23T08:34:06.152Z,992.08
2018-05-23T08:35:06.156Z,992.09
2018-05-23T08:36:06.205Z,992.03
2018-05-23T08:37:06.163Z,992.06
2018-05-23T08:38:06.170Z,992.03
2018-05-23T08:39:06.171Z,991.98
2018-05-23T08:40:06.178Z,992.02
2018-05-23T08:41:06.249Z,992.01
2018-05-23T08:42:06.190Z,992.03
2018-05-23T08:43:06.199Z,992.02
2018-05-23T08:44:06.194Z,992
2018-05-23T08:45:06.201Z,992.03
2018-05-23T08:46:06.291Z,992.04
2018-05-23T08:47:06.206Z,992.05
2018-05-23T08:48:06.207Z,992.07
2018-05-23T08:49:06.213Z,992.08
2018-05-23T08:50:06.224Z,992.09
2018-05-23T08:51:06.222Z,992.07
2018-05-23T08:52:06.233Z,992.05
2018-05-23T08:53:06.230Z,992.07
2018-05-23T08:54:06.237Z,992.09
2018-05-23T08:55:06.241Z,992.1
2018-05-23T08:56:06.244Z,992.06
2018-05-23T08:57:06.247Z,992.07
2018-05-23T08:58:06.253Z,992.07
2018-05-23T08:59:06.258Z,992.02
2018-05-23T09:00:06.263Z,992.04
2018-05-23T09:01:06.327Z,992.05
2018-05-23T09:02:06.270Z,992.1
2018-05-23T09:03:06.274Z,992.08
2018-05-23T09:04:06.278Z,992.1
2018-05-23T09:05:06.400Z,992.11
2018-05-23T09:06:06.288Z,992.11
2018-05-23T09:07:06.291Z,992.15
2018-05-23T09:08:06.295Z,992.22
2018-05-23T09:09:06.303Z,992.19
2018-05-23T09:10:06.311Z,992.2
2018-05-23T09:11:06.311Z,992.2
2018-05-23T09:12:06.329Z,992.19
2018-05-23T09:13:06.323Z,992.19
2018-05-23T09:14:06.330Z,992.18
2018-05-23T09:15:06.324Z,992.21
2018-05-23T09:16:06.336Z,992.23
2018-05-23T09:17:06.333Z,992.21
2018-05-23T09:18:06.335Z,992.18
2018-05-23T09:19:06.337Z,992.16
2018-05-23T09:20:06.342Z,992.2
2018-05-23T09:21:06.416Z,992.22
2018-05-23T09:22:06.351Z,992.22
2018-05-23T09:23:06.355Z,992.21
2018-05-23T09:24:06.409Z,992.22
2018-05-23T09:25:06.419Z,992.23
2018-05-23T09:26:06.366Z,992.29
2018-05-23T09:27:06.371Z,992.28
2018-05-23T09:28:06.381Z,992.3
2018-05-23T09:29:06.377Z,992.28
2018-05-23T09:30:06.384Z,992.35
2018-05-23T09:31:06.387Z,992.31
2018-05-23T09:32:06.427Z,992.36
2018-05-23T09:33:06.392Z,992.36
2018-05-23T09:34:06.397Z,992.37
2018-05-23T09:35:06.401Z,992.41
2018-05-23T09:36:06.407Z,992.39
2018-05-23T09:37:06.413Z,992.38
2018-05-23T09:38:06.410Z,992.42
2018-05-23T09:39:06.434Z,992.42
2018-05-23T09:40:06.423Z,992.38
2018-05-23T09:41:06.427Z,992.38
2018-05-23T09:42:06.430Z,992.41
2018-05-23T09:43:06.436Z,992.39
2018-05-23T09:44:06.439Z,992.41
2018-05-23T09:45:06.457Z,992.44
2018-05-23T09:46:06.455Z,992.44
2018-05-23T09:47:06.459Z,992.42
2018-05-23T09:48:06.461Z,992.44
2018-05-23T09:49:06.463Z,992.44
2018-05-23T09:50:06.465Z,992.47
2018-05-23T09:51:06.469Z,992.49
2018-05-23T09:52:06.476Z,992.48
2018-05-23T09:53:06.480Z,992.47
2018-05-23T09:54:06.486Z,992.45
2018-05-23T09:55:06.530Z,992.47
2018-05-23T09:56:06.501Z,992.44
2018-05-23T09:57:06.498Z,992.45
2018-05-23T09:58:06.507Z,992.41
2018-05-23T09:59:06.508Z,992.43
2018-05-23T10:00:06.515Z,992.44
2018-05-23T10:01:06.519Z,992.44
2018-05-23T10:02:06.523Z,992.45
2018-05-23T10:03:06.526Z,992.43
2018-05-23T10:04:06.540Z,992.47
2018-05-23T10:05:06.542Z,992.42
2018-05-23T10:06:06.543Z,992.43
2018-05-23T10:07:06.556Z,992.43
2018-05-23T10:08:06.555Z,992.46
2018-05-23T10:09:06.625Z,992.45
2018-05-23T10:10:06.568Z,992.45
2018-05-23T10:11:06.612Z,992.44
2018-05-23T10:12:06.577Z,992.42
2018-05-23T10:13:06.578Z,992.44
2018-05-23T10:14:06.585Z,992.39
2018-05-23T10:15:06.587Z,992.34
2018-05-23T10:16:06.632Z,992.32
2018-05-23T10:17:06.606Z,992.31
2018-05-23T10:18:06.605Z,992.31
2018-05-23T10:19:06.613Z,992.3
2018-05-23T10:20:06.613Z,992.28
2018-05-23T10:21:06.621Z,992.3
2018-05-23T10:22:06.626Z,992.31
2018-05-23T10:23:06.632Z,992.32
2018-05-23T10:53:45.903Z,992.31
2018-05-23T10:54:42.965Z,992.27
2018-05-23T10:55:42.952Z,992.23
2018-05-23T10:56:42.954Z,992.27
2018-05-23T10:57:42.957Z,992.22
2018-05-23T10:58:42.959Z,992.24
2018-05-23T10:59:42.965Z,992.26
2018-05-23T11:00:42.964Z,992.21
2018-05-23T11:01:42.968Z,992.26
2018-05-23T11:02:42.973Z,992.26
2018-05-23T11:03:42.980Z,992.27
2018-05-23T11:04:42.982Z,992.26
2018-05-23T11:05:43.024Z,992.26
2018-05-23T11:06:42.990Z,992.23
2018-05-23T11:07:42.996Z,992.19
2018-05-23T11:08:43.000Z,992.16
2018-05-23T11:09:43.006Z,992.17
2018-05-23T11:10:43.010Z,992.16
2018-05-23T11:11:43.012Z,992.16
2018-05-23T11:12:43.025Z,992.14
2018-05-23T11:13:43.020Z,992.12
2018-05-23T11:14:43.099Z,992.18
2018-05-23T11:15:43.028Z,992.08
2018-05-23T11:16:43.033Z,992.1
2018-05-23T11:17:43.039Z,992.04
2018-05-23T11:18:43.045Z,992.02
2018-05-23T11:19:43.047Z,992.01
2018-05-23T11:20:43.051Z,992.05
2018-05-23T11:21:43.060Z,992.06
2018-05-23T11:22:43.060Z,992.02
2018-05-23T11:23:43.081Z,992
2018-05-23T11:24:43.087Z,991.99
2018-05-23T11:25:43.075Z,992.03
2018-05-23T11:26:43.083Z,992.01
2018-05-23T11:27:43.088Z,992.02
2018-05-23T11:28:43.099Z,991.97
2018-05-23T11:29:43.102Z,991.98
2018-05-23T11:30:43.110Z,991.99
2018-05-23T11:31:43.107Z,991.9
2018-05-23T11:32:43.111Z,991.91
2018-05-23T11:33:43.116Z,991.87
2018-05-23T11:34:43.120Z,991.94
2018-05-23T11:35:43.125Z,991.95
2018-05-23T11:36:43.129Z,991.95
2018-05-23T11:37:43.132Z,991.92
2018-05-23T11:38:43.138Z,991.9
2018-05-23T11:39:43.151Z,991.89
2018-05-23T11:40:43.151Z,991.89
2018-05-23T11:41:43.154Z,991.86
2018-05-23T11:42:43.158Z,991.89
2018-05-23T11:43:43.167Z,991.82
2018-05-23T11:44:43.174Z,991.85
2018-05-23T11:45:43.177Z,991.8
2018-05-23T11:46:43.203Z,991.81
2018-05-23T11:47:43.191Z,991.79
2018-05-23T11:48:43.191Z,991.8
2018-05-23T11:49:43.214Z,991.78
2018-05-23T11:50:43.200Z,991.71
2018-05-23T11:51:43.211Z,991.72
2018-05-23T11:52:43.232Z,991.65
2018-05-23T11:53:43.219Z,991.71
2018-05-23T11:54:43.308Z,991.68
2018-05-23T11:55:43.223Z,991.66
2018-05-23T11:56:43.229Z,991.58
2018-05-23T11:57:43.232Z,991.58
2018-05-23T11:58:43.234Z,991.57
2018-05-23T11:59:43.244Z,991.54
2018-05-23T12:00:43.257Z,991.53
2018-05-23T12:01:43.268Z,991.51
2018-05-23T12:02:43.264Z,991.48
2018-05-23T12:03:43.264Z,991.45
2018-05-23T12:04:43.267Z,991.41
2018-05-23T12:05:43.285Z,991.43
2018-05-23T12:06:43.278Z,991.34
2018-05-23T12:07:43.300Z,991.39
2018-05-23T12:08:43.289Z,991.29
2018-05-23T12:09:43.286Z,991.35
2018-05-23T12:10:43.321Z,991.34
2018-05-23T12:11:43.297Z,991.34
2018-05-23T12:12:43.311Z,991.33
2018-05-23T12:13:43.306Z,991.33
2018-05-23T12:14:43.309Z,991.34
2018-05-23T12:15:43.319Z,991.37
2018-05-23T12:16:43.319Z,991.39
2018-05-23T12:17:43.325Z,991.38
2018-05-23T12:18:43.337Z,991.37
2018-05-23T12:19:43.363Z,991.33
2018-05-23T12:20:43.337Z,991.28
2018-05-23T12:21:43.344Z,991.3
2018-05-23T12:22:43.369Z,991.25
2018-05-23T12:23:43.354Z,991.21
2018-05-23T12:24:43.425Z,991.2
2018-05-23T12:25:43.364Z,991.16
2018-05-23T12:26:43.368Z,991.14
2018-05-23T12:27:43.373Z,991.12
2018-05-23T12:28:43.376Z,991.15
2018-05-23T12:29:43.383Z,991.12
2018-05-23T12:30:43.385Z,991.07
2018-05-23T12:31:43.394Z,991.09
2018-05-23T12:32:43.429Z,991.09
2018-05-23T12:33:43.400Z,991.11
2018-05-23T12:34:43.412Z,991.12
2018-05-23T12:35:43.408Z,991.12
2018-05-23T12:36:43.416Z,991.06
2018-05-23T12:37:43.419Z,991.11
2018-05-23T12:38:43.421Z,991.08
2018-05-23T12:39:43.430Z,991.08
2018-05-23T12:40:43.432Z,991.09
2018-05-23T12:41:43.439Z,991.06
2018-05-23T12:42:43.439Z,991.07
2018-05-23T12:43:43.444Z,991.07
2018-05-23T12:44:43.450Z,991.13
2018-05-23T12:45:43.453Z,991.15
2018-05-23T12:46:43.454Z,991.17
2018-05-23T12:47:43.462Z,991.17
2018-05-23T12:48:43.475Z,991.23
2018-05-23T12:49:43.480Z,991.2
2018-05-23T12:50:43.476Z,991.24
2018-05-23T12:51:43.491Z,991.25
2018-05-23T12:52:43.485Z,991.27
2018-05-23T12:53:43.487Z,991.23
2018-05-23T12:54:46.747Z,991.24
2018-05-23T12:55:43.497Z,991.23
2018-05-23T12:56:43.503Z,991.2
2018-05-23T12:57:43.508Z,991.21
2018-05-23T12:58:43.512Z,991.2
2018-05-23T12:59:43.516Z,991.18
2018-05-23T13:00:43.533Z,991.15
2018-05-23T13:01:43.528Z,991.12
2018-05-23T13:02:43.533Z,991.17
2018-05-23T13:03:43.537Z,991.18
2018-05-23T13:04:43.543Z,991.15
2018-05-23T13:05:43.545Z,991.16
2018-05-23T13:06:43.576Z,991.16
2018-05-23T13:07:43.556Z,991.11
2018-05-23T13:08:43.563Z,991.06
2018-05-23T13:09:43.569Z,991.02